createdAt,value
2018-02-17T00:00:40.561Z,25.30
2018-02-17T00:03:07.527Z,30.98
2018-02-17T00:05:34.507Z,40.50
2018-02-17T00:08:01.400Z,33.75
2018-02-17T00:10:28.396Z,35.50
2018-02-17T00:12:56.061Z,32.80
2018-02-17T00:15:23.748Z,30.17
2018-02-17T00:17:50.620Z,28.62
2018-02-17T00:20:17.552Z,28.23
2018-02-17T00:22:48.386Z,31.25
2018-02-17T00:25:15.329Z,33.08
2018-02-17T00:27:42.267Z,41.25
2018-02-17T00:30:09.140Z,29.50
2018-02-17T00:32:36.082Z,24.58
2018-02-17T00:35:03.007Z,34.50
2018-02-17T00:37:29.949Z,29.95
2018-02-17T00:39:57.562Z,29.55
2018-02-17T00:42:24.432Z,39.83
2018-02-17T00:44:51.412Z,26.15
2018-02-17T00:47:18.291Z,24.77
2018-02-17T00:49:45.175Z,37.80
2018-02-17T00:52:12.132Z,24.63
2018-02-17T00:54:39.008Z,30.35
2018-02-17T00:57:05.993Z,32.35
2018-02-17T00:59:32.938Z,23.05
2018-02-17T01:01:59.947Z,29.48
2018-02-17T01:04:26.822Z,25.42
2018-02-17T01:06:53.839Z,24.35
2018-02-17T01:09:20.724Z,31.12
2018-02-17T01:11:47.694Z,25.00
2018-02-17T01:14:14.615Z,27.90
2018-02-17T01:16:41.558Z,24.92
2018-02-17T01:19:08.535Z,33.17
2018-02-17T01:21:35.413Z,31.17
2018-02-17T01:24:03.118Z,29.90
2018-02-17T01:26:29.985Z,36.22
2018-02-17T01:28:56.855Z,34.17
2018-02-17T01:31:23.835Z,32.25
2018-02-17T01:33:50.702Z,32.97
2018-02-17T01:36:17.664Z,36.35
2018-02-17T01:38:44.535Z,29.60
2018-02-17T01:41:11.417Z,38.13
2018-02-17T01:43:38.408Z,45.72
2018-02-17T01:46:05.347Z,50.55
2018-02-17T01:48:32.292Z,43.90
2018-02-17T01:50:59.254Z,44.60
2018-02-17T01:53:26.208Z,41.10
2018-02-17T01:55:53.197Z,47.22
2018-02-17T01:58:20.209Z,56.78
2018-02-17T02:00:47.269Z,52.75
2018-02-17T02:03:14.279Z,62.05
2018-02-17T02:05:41.155Z,65.60
2018-02-17T02:08:08.166Z,98.15
2018-02-17T02:10:35.162Z,86.57
2018-02-17T02:13:02.029Z,72.70
2018-02-17T02:15:28.895Z,107.25
2018-02-17T02:17:55.841Z,58.72
2018-02-17T02:20:22.723Z,72.35
2018-02-17T02:22:49.648Z,135.88
2018-02-17T02:25:16.522Z,68.37
2018-02-17T02:27:43.455Z,146.05
2018-02-17T02:30:10.352Z,79.70
2018-02-17T02:32:37.337Z,86.22
2018-02-17T02:35:04.212Z,86.55
2018-02-17T02:37:31.149Z,112.80
2018-02-17T02:39:58.082Z,95.78
2018-02-17T02:42:24.988Z,75.85
2018-02-17T02:44:52.019Z,75.75
2018-02-17T02:47:18.927Z,83.05
2018-02-17T02:49:45.865Z,71.00
2018-02-17T02:52:12.803Z,139.45
2018-02-17T02:54:39.687Z,78.35
2018-02-17T02:57:07.368Z,96.20
2018-02-17T02:59:34.975Z,72.50
2018-02-17T03:02:01.939Z,83.78
2018-02-17T03:04:28.860Z,94.00
2018-02-17T03:06:55.740Z,72.00
2018-02-17T03:09:22.788Z,90.53
2018-02-17T03:11:49.672Z,92.43
2018-02-17T03:14:16.617Z,65.60
2018-02-17T03:16:43.495Z,61.45
2018-02-17T03:19:10.426Z,50.20
2018-02-17T03:21:37.290Z,46.60
2018-02-17T03:24:04.241Z,61.33
2018-02-17T03:26:31.147Z,53.90
2018-02-17T03:28:58.025Z,48.30
2018-02-17T03:31:24.969Z,45.55
2018-02-17T03:33:52.694Z,52.55
2018-02-17T03:36:20.381Z,55.10
2018-02-17T03:38:47.264Z,53.22
2018-02-17T03:41:14.203Z,54.47
2018-02-17T03:43:41.112Z,51.05
2018-02-17T03:46:08.000Z,51.40
2018-02-17T03:48:34.957Z,39.50
2018-02-17T03:51:01.996Z,36.05
2018-02-17T03:53:28.952Z,45.80
2018-02-17T03:55:55.823Z,40.50
2018-02-17T03:58:22.760Z,44.88
2018-02-17T04:00:50.441Z,47.58
2018-02-17T04:03:17.435Z,42.85
2018-02-17T04:05:44.384Z,38.20
2018-02-17T04:08:11.319Z,45.70
2018-02-17T04:10:38.325Z,46.80
2018-02-17T04:13:05.204Z,36.20
2018-02-17T04:15:32.070Z,37.00
2018-02-17T04:17:59.055Z,41.63
2018-02-17T04:20:25.935Z,45.50
2018-02-17T04:22:52.856Z,37.40
2018-02-17T04:25:19.727Z,36.97
2018-02-17T04:27:46.664Z,42.72
2018-02-17T04:30:13.606Z,38.58
2018-02-17T04:32:40.545Z,35.45
2018-02-17T04:35:07.480Z,39.10
2018-02-17T04:37:34.428Z,40.50
2018-02-17T04:40:02.355Z,45.70
2018-02-17T04:42:47.096Z,43.35
2018-02-17T04:45:17.926Z,40.55
2018-02-17T04:47:46.724Z,48.75
2018-02-17T04:50:28.514Z,44.90
2018-02-17T04:53:00.334Z,45.17
2018-02-17T04:55:33.193Z,45.33
2018-02-17T04:58:17.512Z,39.28
2018-02-17T05:00:45.340Z,40.30
2018-02-17T05:03:13.403Z,43.03
2018-02-17T05:05:45.276Z,43.65
2018-02-17T05:08:32.087Z,45.92
2018-02-17T05:10:59.075Z,41.08
2018-02-17T05:13:26.004Z,42.20
2018-02-17T05:16:07.801Z,36.97
2018-02-17T05:18:50.496Z,33.88
2018-02-17T05:21:18.396Z,42.67
2018-02-17T05:23:48.280Z,36.15
2018-02-17T05:26:19.569Z,36.25
2018-02-17T05:28:46.536Z,33.40
2018-02-17T05:31:14.279Z,36.08
2018-02-17T05:33:48.300Z,35.08
2018-02-17T05:36:26.947Z,39.85
2018-02-17T05:38:53.972Z,38.40
2018-02-17T05:41:23.880Z,38.30
2018-02-17T05:43:50.893Z,41.20
2018-02-17T05:46:20.780Z,33.58
2018-02-17T05:48:48.696Z,34.45
2018-02-17T05:51:15.698Z,42.88
2018-02-17T05:53:42.580Z,35.28
2018-02-17T05:56:09.527Z,38.97
2018-02-17T05:58:36.439Z,41.63
2018-02-17T06:01:03.409Z,38.20
2018-02-17T06:03:30.359Z,38.10
2018-02-17T06:05:57.255Z,40.33
2018-02-17T06:08:24.928Z,32.15
2018-02-17T06:10:52.611Z,35.17
2018-02-17T06:13:19.532Z,37.17
2018-02-17T06:15:48.273Z,32.30
2018-02-17T06:18:15.323Z,35.00
2018-02-17T06:20:42.273Z,27.42
2018-02-17T06:23:09.175Z,34.38
2018-02-17T06:25:36.104Z,28.40
2018-02-17T06:28:03.774Z,40.78
2018-02-17T06:30:31.391Z,34.30
2018-02-17T06:32:58.344Z,30.45
2018-02-17T06:35:25.221Z,29.00
2018-02-17T06:37:52.828Z,29.87
2018-02-17T06:40:19.772Z,34.25
2018-02-17T06:42:46.716Z,34.53
2018-02-17T06:45:13.675Z,34.38
2018-02-17T06:47:40.559Z,34.88
2018-02-17T06:50:08.288Z,30.73
2018-02-17T06:52:35.328Z,33.85
2018-02-17T06:55:02.292Z,36.47
2018-02-17T06:57:29.253Z,29.65
2018-02-17T06:59:56.876Z,33.70
2018-02-17T07:02:23.874Z,34.05
2018-02-17T07:04:51.552Z,34.00
2018-02-17T07:07:18.446Z,33.13
2018-02-17T07:09:45.474Z,29.87
2018-02-17T07:12:12.361Z,34.13
2018-02-17T07:14:39.365Z,30.05
2018-02-17T07:17:06.282Z,34.88
2018-02-17T07:19:33.169Z,32.92
2018-02-17T07:22:00.193Z,34.03
2018-02-17T07:24:27.142Z,34.00
2018-02-17T07:26:54.083Z,42.45
2018-02-17T07:29:21.017Z,36.00
2018-02-17T07:31:47.887Z,34.25
2018-02-17T07:34:14.835Z,35.97
2018-02-17T07:36:41.715Z,30.90
2018-02-17T07:39:08.643Z,30.88
2018-02-17T07:41:35.521Z,43.30
2018-02-17T07:44:03.259Z,32.65
2018-02-17T07:46:30.128Z,35.15
2018-02-17T07:48:57.755Z,42.83
2018-02-17T07:51:24.721Z,44.35
2018-02-17T07:53:51.581Z,30.88
2018-02-17T07:56:18.520Z,29.33
2018-02-17T07:58:45.376Z,34.78
2018-02-17T08:01:12.327Z,30.08
2018-02-17T08:03:40.031Z,30.67
2018-02-17T08:06:06.908Z,32.33
2018-02-17T08:08:33.913Z,40.33
2018-02-17T08:11:00.848Z,38.08
2018-02-17T08:13:27.800Z,37.63
2018-02-17T08:15:54.657Z,37.58
2018-02-17T08:18:21.603Z,39.70
2018-02-17T08:20:49.104Z,30.62
2018-02-17T08:23:25.149Z,27.33
2018-02-17T08:25:52.077Z,27.13
2018-02-17T08:28:18.992Z,32.80
2018-02-17T08:30:45.947Z,33.90
2018-02-17T08:33:12.933Z,30.73
2018-02-17T08:35:40.945Z,30.65
2018-02-17T08:38:11.193Z,29.52
2018-02-17T08:40:38.789Z,32.50
2018-02-17T08:43:10.260Z,37.42
2018-02-17T08:45:41.181Z,27.98
2018-02-17T08:48:08.240Z,34.35
2018-02-17T08:50:35.915Z,32.60
2018-02-17T08:53:02.864Z,30.17
2018-02-17T08:55:30.731Z,33.30
2018-02-17T08:58:02.091Z,34.50
2018-02-17T09:00:29.064Z,31.55
2018-02-17T09:02:57.784Z,32.65
2018-02-17T09:05:26.466Z,33.33
2018-02-17T09:07:56.593Z,30.52
2018-02-17T09:10:38.037Z,31.80
2018-02-17T09:13:05.463Z,26.42
2018-02-17T09:15:33.761Z,30.10
2018-02-17T09:18:03.270Z,26.42
2018-02-17T09:20:35.020Z,29.55
2018-02-17T09:23:02.886Z,29.08
2018-02-17T09:25:32.005Z,30.35
2018-02-17T09:28:00.507Z,38.10
2018-02-17T09:30:28.613Z,27.13
2018-02-17T09:32:58.523Z,29.87
2018-02-17T09:35:35.971Z,29.20
2018-02-17T09:38:14.738Z,28.73
2018-02-17T09:40:47.377Z,27.35
2018-02-17T09:43:15.948Z,32.03
2018-02-17T09:45:44.896Z,26.48
2018-02-17T09:48:21.572Z,26.70
2018-02-17T09:50:57.485Z,32.75
2018-02-17T09:53:25.350Z,32.67
2018-02-17T09:55:59.551Z,29.98
2018-02-17T09:58:33.752Z,30.02
2018-02-17T10:01:12.850Z,30.35
2018-02-17T10:03:42.987Z,26.45
2018-02-17T10:06:09.996Z,31.15
2018-02-17T10:08:36.941Z,26.00
2018-02-17T10:11:03.801Z,30.95
2018-02-17T10:13:30.745Z,27.48
2018-02-17T10:15:57.637Z,29.60
2018-02-17T10:18:25.792Z,30.45
2018-02-17T10:20:56.063Z,35.65
2018-02-17T10:23:23.191Z,32.95
2018-02-17T10:25:52.249Z,28.05
2018-02-17T10:28:21.134Z,33.10
2018-02-17T10:30:52.180Z,27.90
2018-02-17T10:33:19.958Z,32.60
2018-02-17T10:35:46.938Z,27.67
2018-02-17T10:38:14.280Z,29.17
2018-02-17T10:40:42.627Z,31.52
2018-02-17T10:43:17.529Z,27.75
2018-02-17T10:45:46.970Z,28.83
2018-02-17T10:48:14.698Z,30.08
2018-02-17T10:50:47.956Z,28.00
2018-02-17T10:53:14.997Z,31.23
2018-02-17T10:55:45.430Z,33.08
2018-02-17T10:58:17.794Z,34.80
2018-02-17T11:00:50.204Z,33.47
2018-02-17T11:03:17.972Z,32.08
2018-02-17T11:05:45.994Z,31.42
2018-02-17T11:08:13.693Z,27.48
2018-02-17T11:10:41.391Z,29.95
2018-02-17T11:13:09.089Z,28.58
2018-02-17T11:15:50.912Z,35.97
2018-02-17T11:21:17.406Z,37.35
2018-02-17T11:23:51.567Z,32.80
2018-02-17T11:26:29.961Z,36.08
2018-02-17T11:29:11.616Z,30.35
2018-02-17T11:31:39.881Z,32.25
2018-02-17T11:34:06.976Z,35.30
2018-02-17T11:36:33.928Z,23.77
2018-02-17T11:39:00.906Z,26.48
2018-02-17T11:41:27.823Z,27.62
2018-02-17T11:43:54.765Z,26.92
2018-02-17T11:46:21.739Z,32.22
2018-02-17T11:48:48.957Z,32.80
2018-02-17T11:51:17.823Z,30.48
2018-02-17T11:53:47.052Z,27.83
2018-02-17T11:56:21.645Z,32.40
2018-02-17T11:58:57.792Z,27.37
2018-02-17T12:01:26.097Z,27.13
2018-02-17T12:03:56.719Z,28.27
2018-02-17T12:06:24.064Z,28.60
2018-02-17T12:08:51.024Z,33.20
2018-02-17T12:11:24.997Z,26.80
2018-02-17T12:14:00.785Z,29.58
2018-02-17T12:16:39.507Z,33.15
2018-02-17T12:19:10.564Z,33.13
2018-02-17T12:21:46.095Z,29.60
2018-02-17T12:24:14.038Z,32.00
2018-02-17T12:26:41.727Z,30.05
2018-02-17T12:29:21.902Z,29.63
2018-02-17T12:31:57.395Z,26.08
2018-02-17T12:34:35.894Z,30.33
2018-02-17T12:37:13.523Z,46.42
2018-02-17T12:39:55.257Z,31.42
2018-02-17T12:42:26.717Z,31.85
2018-02-17T12:44:55.925Z,32.58
2018-02-17T12:47:35.985Z,28.65
2018-02-17T12:50:15.085Z,24.20
2018-02-17T12:52:51.160Z,33.22
2018-02-17T12:55:26.566Z,25.35
2018-02-17T12:57:57.585Z,28.35
2018-02-17T13:00:24.648Z,29.92
2018-02-17T13:02:51.590Z,31.75
2018-02-17T13:05:19.423Z,31.15
2018-02-17T13:07:46.478Z,29.20
2018-02-17T13:10:14.076Z,27.08
2018-02-17T13:12:42.053Z,25.75
2018-02-17T13:15:16.044Z,28.35
2018-02-17T13:20:39.429Z,29.87
2018-02-17T13:23:15.336Z,30.67
2018-02-17T13:25:45.850Z,24.23
2018-02-17T13:28:26.343Z,26.60
2018-02-17T13:30:55.315Z,30.62
2018-02-17T13:36:17.416Z,24.63
2018-02-17T13:38:55.472Z,26.90
2018-02-17T13:41:22.833Z,25.62
2018-02-17T13:43:49.713Z,27.75
2018-02-17T13:46:16.701Z,21.17
2018-02-17T13:48:43.668Z,23.80
2018-02-17T13:51:10.831Z,22.40
2018-02-17T13:53:38.169Z,22.60
2018-02-17T13:56:05.663Z,25.62
2018-02-17T13:58:38.266Z,27.55
2018-02-17T14:01:13.972Z,30.05
2018-02-17T14:03:48.823Z,25.20
2018-02-17T14:06:17.655Z,24.27
2018-02-17T14:08:45.116Z,27.13
2018-02-17T14:11:16.197Z,22.85
2018-02-17T14:13:46.582Z,24.75
2018-02-17T14:16:14.934Z,23.70
2018-02-17T14:18:43.090Z,27.40
2018-02-17T14:21:19.494Z,23.85
2018-02-17T14:23:49.308Z,26.70
2018-02-17T14:26:28.366Z,31.12
2018-02-17T14:29:05.923Z,28.10
2018-02-17T14:31:35.464Z,25.52
2018-02-17T14:34:04.786Z,24.00
2018-02-17T14:36:32.460Z,24.90
2018-02-17T14:39:02.056Z,23.12
2018-02-17T14:41:32.696Z,27.40
2018-02-17T14:46:42.971Z,27.08
2018-02-17T14:49:10.523Z,24.33
2018-02-17T14:51:40.789Z,24.80
2018-02-17T14:54:15.007Z,23.50
2018-02-17T14:56:47.475Z,21.55
2018-02-17T14:59:14.981Z,24.77
2018-02-17T15:01:44.077Z,25.10
2018-02-17T15:04:13.846Z,24.90
2018-02-17T15:06:40.997Z,23.52
2018-02-17T15:09:07.937Z,26.02
2018-02-17T15:11:36.197Z,33.88
2018-02-17T15:14:03.350Z,28.90
2018-02-17T15:16:31.101Z,28.87
2018-02-17T15:18:58.127Z,30.75
2018-02-17T15:21:25.132Z,28.02
2018-02-17T15:23:52.766Z,27.75
2018-02-17T15:26:19.716Z,30.83
2018-02-17T15:28:46.756Z,28.08
2018-02-17T15:31:13.707Z,31.40
2018-02-17T15:33:40.661Z,38.38
2018-02-17T15:36:07.838Z,36.50
2018-02-17T15:38:34.883Z,29.98
2018-02-17T15:41:02.160Z,30.40
2018-02-17T15:43:29.191Z,34.58
2018-02-17T15:45:56.167Z,29.27
2018-02-17T15:48:36.015Z,27.75
2018-02-17T15:51:06.044Z,31.90
2018-02-17T15:53:47.037Z,29.98
2018-02-17T15:56:14.588Z,31.42
2018-02-17T15:58:52.559Z,30.77
2018-02-17T16:01:20.171Z,36.60
2018-02-17T16:03:47.114Z,30.15
2018-02-17T16:06:18.630Z,33.85
2018-02-17T16:08:54.323Z,32.42
2018-02-17T16:11:34.922Z,29.12
2018-02-17T16:14:03.919Z,28.02
2018-02-17T16:16:32.908Z,29.08
2018-02-17T16:19:07.382Z,31.37
2018-02-17T16:21:43.830Z,34.65
2018-02-17T16:24:18.682Z,31.73
2018-02-17T16:26:56.962Z,26.42
2018-02-17T16:29:37.400Z,33.42
2018-02-17T16:32:18.277Z,32.08
2018-02-17T16:34:47.406Z,32.78
2018-02-17T16:37:14.402Z,32.35
2018-02-17T16:42:33.724Z,31.87
2018-02-17T16:45:02.860Z,33.10
2018-02-17T16:47:31.314Z,35.38
2018-02-17T16:49:59.562Z,31.87
2018-02-17T16:52:29.044Z,29.75
2018-02-17T16:55:00.209Z,33.95
2018-02-17T16:57:27.884Z,29.15
2018-02-17T16:59:55.944Z,31.20
2018-02-17T17:02:24.613Z,30.05
2018-02-17T17:04:51.795Z,33.63
2018-02-17T17:07:24.761Z,33.45
2018-02-17T17:10:00.901Z,30.15
2018-02-17T17:12:33.964Z,29.60
2018-02-17T17:15:12.000Z,34.45
2018-02-17T17:20:35.858Z,36.53
2018-02-17T17:23:17.444Z,34.25
2018-02-17T17:25:55.480Z,35.88
2018-02-17T17:28:25.797Z,39.38
2018-02-17T17:31:01.222Z,39.72
2018-02-17T17:33:38.354Z,34.95
2018-02-17T17:36:11.624Z,34.65
2018-02-17T17:38:40.994Z,32.22
2018-02-17T17:41:15.652Z,38.47
2018-02-17T17:43:48.421Z,37.10
2018-02-17T17:46:25.971Z,42.38
2018-02-17T17:49:00.907Z,42.80
2018-02-17T17:51:35.821Z,37.13
2018-02-17T17:54:12.052Z,35.13
2018-02-17T17:56:40.819Z,32.03
2018-02-17T17:59:10.437Z,41.45
2018-02-17T18:01:38.507Z,35.63
2018-02-17T18:04:08.327Z,34.38
2018-02-17T18:06:37.464Z,32.70
2018-02-17T18:09:05.524Z,32.25
2018-02-17T18:11:35.530Z,32.55
2018-02-17T18:14:05.503Z,34.50
2018-02-17T18:16:34.465Z,38.90
2018-02-17T18:19:03.292Z,35.83
2018-02-17T18:21:32.767Z,40.67
2018-02-17T18:23:59.750Z,39.30
2018-02-17T18:26:26.726Z,42.25
2018-02-17T18:28:54.431Z,46.58
2018-02-17T18:31:21.376Z,38.42
2018-02-17T18:33:48.321Z,42.15
2018-02-17T18:36:15.268Z,47.17
2018-02-17T18:38:42.220Z,47.58
2018-02-17T18:41:09.099Z,37.72
2018-02-17T18:43:36.120Z,45.78
2018-02-17T18:46:03.100Z,47.75
2018-02-17T18:48:29.977Z,39.35
2018-02-17T18:50:57.665Z,49.35
2018-02-17T18:53:24.552Z,39.80
2018-02-17T18:55:51.532Z,43.22
2018-02-17T18:58:18.425Z,43.05
2018-02-17T19:00:45.359Z,39.88
2018-02-17T19:03:12.314Z,33.60
2018-02-17T19:05:39.277Z,37.45
2018-02-17T19:08:06.226Z,37.85
2018-02-17T19:10:33.163Z,38.20
2018-02-17T19:13:00.114Z,35.88
2018-02-17T19:15:27.020Z,36.05
2018-02-17T19:17:53.972Z,44.28
2018-02-17T19:20:20.850Z,40.25
2018-02-17T19:22:47.816Z,48.60
2018-02-17T19:25:14.711Z,45.05
2018-02-17T19:27:41.588Z,35.80
2018-02-17T19:30:08.537Z,40.15
2018-02-17T19:32:35.506Z,40.20
2018-02-17T19:35:02.409Z,44.03
2018-02-17T19:37:29.367Z,46.47
2018-02-17T19:39:56.249Z,42.88
2018-02-17T19:42:23.202Z,40.75
2018-02-17T19:44:50.085Z,37.35
2018-02-17T19:47:16.972Z,37.85
2018-02-17T19:49:43.921Z,42.00
2018-02-17T19:52:10.803Z,39.28
2018-02-17T19:54:37.752Z,41.60
2018-02-17T19:57:04.638Z,40.97
2018-02-17T19:59:31.625Z,43.92
2018-02-17T20:01:59.287Z,49.00
2018-02-17T20:04:26.260Z,42.15
2018-02-17T20:06:53.209Z,46.13
2018-02-17T20:09:20.147Z,46.15
2018-02-17T20:11:47.096Z,48.95
2018-02-17T20:14:13.986Z,49.95
2018-02-17T20:16:40.928Z,50.85
2018-02-17T20:19:07.887Z,44.03
2018-02-17T20:21:34.819Z,50.17
2018-02-17T20:24:01.776Z,48.75
2018-02-17T20:26:28.712Z,49.72
2018-02-17T20:28:55.665Z,45.15
2018-02-17T20:31:22.533Z,47.20
2018-02-17T20:33:49.552Z,43.45
2018-02-17T20:36:16.456Z,37.83
2018-02-17T20:38:43.428Z,39.15
2018-02-17T20:41:10.316Z,45.88
2018-02-17T20:43:37.275Z,43.63
2018-02-17T20:46:04.930Z,39.38
2018-02-17T20:48:31.821Z,40.70
2018-02-17T20:50:58.816Z,44.97
2018-02-17T20:53:26.439Z,38.05
2018-02-17T20:55:53.425Z,38.90
2018-02-17T20:58:20.305Z,38.47
2018-02-17T21:00:47.184Z,38.47
2018-02-17T21:03:14.144Z,39.13
2018-02-17T21:05:46.259Z,39.53
2018-02-17T21:08:27.338Z,38.85
2018-02-17T21:10:55.821Z,38.85
2018-02-17T21:13:27.456Z,42.03
2018-02-17T21:16:01.114Z,39.53
2018-02-17T21:18:28.282Z,44.47
2018-02-17T21:21:04.596Z,44.88
2018-02-17T21:23:37.178Z,42.25
2018-02-17T21:26:06.494Z,42.72
2018-02-17T21:28:48.794Z,41.28
2018-02-17T21:31:31.011Z,42.42
2018-02-17T21:34:13.963Z,39.42
2018-02-17T21:36:58.311Z,37.40
2018-02-17T21:39:40.203Z,43.55
2018-02-17T21:42:21.906Z,45.15
2018-02-17T21:44:52.523Z,39.75
2018-02-17T21:47:26.393Z,39.47
2018-02-17T21:50:07.702Z,34.92
2018-02-17T21:52:49.771Z,37.13
2018-02-17T21:55:33.213Z,41.25
2018-02-17T21:58:15.103Z,39.33
2018-02-17T22:00:43.061Z,33.45
2018-02-17T22:03:24.319Z,36.40
2018-02-17T22:06:06.252Z,34.67
2018-02-17T22:08:34.266Z,36.08
2018-02-17T22:11:12.366Z,39.92
2018-02-17T22:13:46.111Z,37.92
2018-02-17T22:16:21.390Z,34.17
2018-02-17T22:19:02.770Z,40.80
2018-02-17T22:21:45.073Z,32.45
2018-02-17T22:24:29.529Z,32.92
2018-02-17T22:27:12.194Z,38.53
2018-02-17T22:29:54.071Z,36.92
2018-02-17T22:32:36.717Z,40.25
2018-02-17T22:35:10.681Z,36.63
2018-02-17T22:37:38.185Z,39.65
2018-02-17T22:40:16.900Z,38.92
2018-02-17T22:42:50.657Z,36.47
2018-02-17T22:45:20.370Z,35.00
2018-02-17T22:47:49.567Z,38.63
2018-02-17T22:50:18.566Z,43.47
2018-02-17T22:52:51.669Z,42.53
2018-02-17T22:55:29.759Z,40.38
2018-02-17T22:57:58.204Z,44.80
2018-02-17T23:00:36.505Z,38.80
2018-02-17T23:03:06.029Z,43.63
2018-02-17T23:05:36.731Z,40.47
2018-02-17T23:08:13.301Z,41.50
2018-02-17T23:10:44.396Z,40.50
2018-02-17T23:13:14.254Z,45.12
2018-02-17T23:15:47.689Z,46.42
2018-02-17T23:18:17.770Z,38.95
2018-02-17T23:20:50.672Z,35.38
2018-02-17T23:23:24.122Z,38.00
2018-02-17T23:26:01.259Z,41.05
2018-02-17T23:28:28.573Z,38.22
2018-02-17T23:30:55.708Z,33.38
2018-02-17T23:33:22.874Z,37.38
2018-02-17T23:35:50.060Z,40.65
2018-02-17T23:38:17.992Z,38.47
2018-02-17T23:40:45.079Z,39.47
2018-02-17T23:43:12.390Z,43.67
2018-02-17T23:45:40.516Z,43.38
2018-02-17T23:48:07.645Z,37.83
2018-02-17T23:50:34.754Z,44.67
2018-02-17T23:53:02.583Z,44.47
2018-02-17T23:55:29.738Z,41.90
2018-02-17T23:57:56.785Z,46.97
